sensor_id;sensor_type;location;lat;lon;timestamp;temperature;humidity
8565;DHT22;4320;51.498;6.556;2023-02-03T00:00:31;9.60;1.00
8565;DHT22;4320;51.498;6.556;2023-02-03T00:02:56;9.60;1.00
8565;DHT22;4320;51.498;6.556;2023-02-03T00:05:22;9.60;1.00
8565;DHT22;4320;51.498;6.556;2023-02-03T00:07:48;9.60;1.00
8565;DHT22;4320;51.498;6.556;2023-02-03T00:10:15;9.70;1.00
8565;DHT22;4320;51.498;6.556;2023-02-03T00:12:48;9.70;1.00
8565;DHT22;4320;51.498;6.556;2023-02-03T00:15:15;9.70;1.00
8565;DHT22;4320;51.498;6.556;2023-02-03T00:17:41;9.70;1.00
8565;DHT22;4320;51.498;6.556;2023-02-03T00:20:07;9.70;1.00
8565;DHT22;4320;51.498;6.556;2023-02-03T00:22:33;9.70;1.00
8565;DHT22;4320;51.498;6.556;2023-02-03T00:24:58;9.70;1.00
8565;DHT22;4320;51.498;6.556;2023-02-03T00:27:25;9.70;1.00
8565;DHT22;4320;51.498;6.556;2023-02-03T00:29:50;9.70;1.00
8565;DHT22;4320;51.498;6.556;2023-02-03T00:32:16;9.70;1.00
8565;DHT22;4320;51.498;6.556;2023-02-03T00:34:41;9.70;1.00
8565;DHT22;4320;51.498;6.556;2023-02-03T00:37:07;9.70;1.00
8565;DHT22;4320;51.498;6.556;2023-02-03T00:39:35;9.70;1.00
8565;DHT22;4320;51.498;6.556;2023-02-03T00:42:03;9.70;1.00
8565;DHT22;4320;51.498;6.556;2023-02-03T00:44:28;9.70;1.00
8565;DHT22;4320;51.498;6.556;2023-02-03T00:46:54;9.70;1.00
8565;DHT22;4320;51.498;6.556;2023-02-03T00:49:19;9.70;1.00
8565;DHT22;4320;51.498;6.556;2023-02-03T00:51:45;9.70;1.00
8565;DHT22;4320;51.498;6.556;2023-02-03T00:54:11;9.70;1.00
8565;DHT22;4320;51.498;6.556;2023-02-03T00:56:38;9.70;1.00
8565;DHT22;4320;51.498;6.556;2023-02-03T00:59:03;9.70;1.00
8565;DHT22;4320;51.498;6.556;2023-02-03T01:01:29;9.70;1.00
8565;DHT22;4320;51.498;6.556;2023-02-03T01:03:55;9.70;1.00
8565;DHT22;4320;51.498;6.556;2023-02-03T01:06:22;9.70;1.00
8565;DHT22;4320;51.498;6.556;2023-02-03T01:08:48;9.70;99.90
8565;DHT22;4320;51.498;6.556;2023-02-03T01:11:17;9.80;99.90
8565;DHT22;4320;51.498;6.556;2023-02-03T01:13:43;9.70;99.90
8565;DHT22;4320;51.498;6.556;2023-02-03T01:16:11;9.70;99.90
8565;DHT22;4320;51.498;6.556;2023-02-03T01:18:37;9.80;99.90
8565;DHT22;4320;51.498;6.556;2023-02-03T01:21:05;9.70;99.90
8565;DHT22;4320;51.498;6.556;2023-02-03T01:23:31;9.80;99.90
8565;DHT22;4320;51.498;6.556;2023-02-03T01:26:05;9.70;99.90
8565;DHT22;4320;51.498;6.556;2023-02-03T01:28:31;9.70;99.90
8565;DHT22;4320;51.498;6.556;2023-02-03T01:30:57;9.80;99.90
8565;DHT22;4320;51.498;6.556;2023-02-03T01:33:22;9.70;99.90
8565;DHT22;4320;51.498;6.556;2023-02-03T01:35:48;9.70;99.90
8565;DHT22;4320;51.498;6.556;2023-02-03T01:38:13;9.80;99.90
8565;DHT22;4320;51.498;6.556;2023-02-03T01:40:43;9.70;99.90
8565;DHT22;4320;51.498;6.556;2023-02-03T01:43:37;9.80;99.90
8565;DHT22;4320;51.498;6.556;2023-02-03T01:48:53;9.80;99.90
8565;DHT22;4320;51.498;6.556;2023-02-03T01:51:21;9.80;99.90
8565;DHT22;4320;51.498;6.556;2023-02-03T01:53:48;9.80;99.90
8565;DHT22;4320;51.498;6.556;2023-02-03T01:56:16;9.80;99.90
8565;DHT22;4320;51.498;6.556;2023-02-03T01:58:42;9.80;99.90
8565;DHT22;4320;51.498;6.556;2023-02-03T02:01:08;9.80;99.90
8565;DHT22;4320;51.498;6.556;2023-02-03T02:03:49;9.80;99.90
8565;DHT22;4320;51.498;6.556;2023-02-03T02:06:16;9.80;99.90
8565;DHT22;4320;51.498;6.556;2023-02-03T02:08:47;9.80;99.90
8565;DHT22;4320;51.498;6.556;2023-02-03T02:11:13;9.80;99.90
8565;DHT22;4320;51.498;6.556;2023-02-03T02:13:39;9.80;99.90
8565;DHT22;4320;51.498;6.556;2023-02-03T02:16:20;9.80;99.90
8565;DHT22;4320;51.498;6.556;2023-02-03T02:27:25;9.80;99.90
8565;DHT22;4320;51.498;6.556;2023-02-03T02:36:22;9.70;99.90
8565;DHT22;4320;51.498;6.556;2023-02-03T02:39:13;9.80;99.90
8565;DHT22;4320;51.498;6.556;2023-02-03T02:41:51;9.80;99.90
8565;DHT22;4320;51.498;6.556;2023-02-03T02:46:48;9.80;99.90
8565;DHT22;4320;51.498;6.556;2023-02-03T02:51:45;9.80;99.90
8565;DHT22;4320;51.498;6.556;2023-02-03T02:54:16;9.90;99.90
8565;DHT22;4320;51.498;6.556;2023-02-03T02:56:44;9.80;99.90
8565;DHT22;4320;51.498;6.556;2023-02-03T02:59:13;9.80;99.90
8565;DHT22;4320;51.498;6.556;2023-02-03T03:01:39;9.80;99.90
8565;DHT22;4320;51.498;6.556;2023-02-03T03:04:07;9.80;99.90
8565;DHT22;4320;51.498;6.556;2023-02-03T03:06:47;9.80;99.90
8565;DHT22;4320;51.498;6.556;2023-02-03T03:09:23;9.80;99.90
8565;DHT22;4320;51.498;6.556;2023-02-03T03:11:55;9.80;99.90
8565;DHT22;4320;51.498;6.556;2023-02-03T03:14:25;9.80;99.90
8565;DHT22;4320;51.498;6.556;2023-02-03T03:16:59;9.70;99.90
8565;DHT22;4320;51.498;6.556;2023-02-03T03:19:29;9.80;99.90
8565;DHT22;4320;51.498;6.556;2023-02-03T03:22:00;9.80;99.90
8565;DHT22;4320;51.498;6.556;2023-02-03T03:24:38;9.70;99.90
8565;DHT22;4320;51.498;6.556;2023-02-03T03:27:17;9.80;99.90
8565;DHT22;4320;51.498;6.556;2023-02-03T03:29:58;9.80;99.90
8565;DHT22;4320;51.498;6.556;2023-02-03T03:32:25;9.80;99.90
8565;DHT22;4320;51.498;6.556;2023-02-03T03:34:53;9.80;99.90
8565;DHT22;4320;51.498;6.556;2023-02-03T03:37:40;9.80;99.90
8565;DHT22;4320;51.498;6.556;2023-02-03T03:40:11;9.80;99.90
8565;DHT22;4320;51.498;6.556;2023-02-03T03:42:47;9.80;99.90
8565;DHT22;4320;51.498;6.556;2023-02-03T03:50:27;9.80;99.90
8565;DHT22;4320;51.498;6.556;2023-02-03T03:52:55;9.80;99.90
8565;DHT22;4320;51.498;6.556;2023-02-03T03:55:23;9.80;99.90
8565;DHT22;4320;51.498;6.556;2023-02-03T03:57:59;9.80;99.90
8565;DHT22;4320;51.498;6.556;2023-02-03T04:00:28;9.80;99.90
8565;DHT22;4320;51.498;6.556;2023-02-03T04:02:57;9.80;99.90
8565;DHT22;4320;51.498;6.556;2023-02-03T04:05:24;9.80;99.90
8565;DHT22;4320;51.498;6.556;2023-02-03T04:07:50;9.80;99.90
8565;DHT22;4320;51.498;6.556;2023-02-03T04:10:30;9.80;99.90
8565;DHT22;4320;51.498;6.556;2023-02-03T04:12:56;9.80;99.90
8565;DHT22;4320;51.498;6.556;2023-02-03T04:15:22;9.80;99.90
8565;DHT22;4320;51.498;6.556;2023-02-03T04:17:48;9.70;99.90
8565;DHT22;4320;51.498;6.556;2023-02-03T04:20:14;9.70;99.90
8565;DHT22;4320;51.498;6.556;2023-02-03T04:22:40;9.80;99.90
8565;DHT22;4320;51.498;6.556;2023-02-03T04:25:06;9.80;99.90
8565;DHT22;4320;51.498;6.556;2023-02-03T04:27:31;9.80;99.90
8565;DHT22;4320;51.498;6.556;2023-02-03T04:29:57;9.80;99.90
8565;DHT22;4320;51.498;6.556;2023-02-03T04:32:23;9.80;99.90
8565;DHT22;4320;51.498;6.556;2023-02-03T04:34:48;9.70;99.90
8565;DHT22;4320;51.498;6.556;2023-02-03T04:37:14;9.90;99.90
8565;DHT22;4320;51.498;6.556;2023-02-03T04:39:39;9.80;99.90
8565;DHT22;4320;51.498;6.556;2023-02-03T04:42:05;9.80;99.90
8565;DHT22;4320;51.498;6.556;2023-02-03T04:44:30;9.80;99.90
8565;DHT22;4320;51.498;6.556;2023-02-03T04:46:56;9.80;99.90
8565;DHT22;4320;51.498;6.556;2023-02-03T04:49:22;9.80;99.90
8565;DHT22;4320;51.498;6.556;2023-02-03T04:51:48;9.80;99.90
8565;DHT22;4320;51.498;6.556;2023-02-03T04:54:14;9.80;99.90
8565;DHT22;4320;51.498;6.556;2023-02-03T04:56:39;9.80;99.90
8565;DHT22;4320;51.498;6.556;2023-02-03T04:59:05;9.90;99.90
8565;DHT22;4320;51.498;6.556;2023-02-03T05:01:31;9.80;99.90
8565;DHT22;4320;51.498;6.556;2023-02-03T05:03:57;9.80;99.90
8565;DHT22;4320;51.498;6.556;2023-02-03T05:06:24;9.80;99.90
8565;DHT22;4320;51.498;6.556;2023-02-03T05:08:51;9.80;99.90
8565;DHT22;4320;51.498;6.556;2023-02-03T05:11:16;9.90;99.90
8565;DHT22;4320;51.498;6.556;2023-02-03T05:13:42;9.80;99.90
8565;DHT22;4320;51.498;6.556;2023-02-03T05:16:08;9.80;99.90
8565;DHT22;4320;51.498;6.556;2023-02-03T05:18:33;9.80;99.90
8565;DHT22;4320;51.498;6.556;2023-02-03T05:20:59;9.80;99.90
8565;DHT22;4320;51.498;6.556;2023-02-03T05:23:25;9.90;99.90
8565;DHT22;4320;51.498;6.556;2023-02-03T05:25:50;9.90;99.90
8565;DHT22;4320;51.498;6.556;2023-02-03T05:28:16;9.90;99.90
8565;DHT22;4320;51.498;6.556;2023-02-03T05:30:42;9.90;99.90
8565;DHT22;4320;51.498;6.556;2023-02-03T05:33:07;9.90;99.90
8565;DHT22;4320;51.498;6.556;2023-02-03T05:35:33;9.90;99.90
8565;DHT22;4320;51.498;6.556;2023-02-03T05:37:59;9.90;99.90
8565;DHT22;4320;51.498;6.556;2023-02-03T05:40:25;9.90;99.90
8565;DHT22;4320;51.498;6.556;2023-02-03T05:43:09;9.90;99.90
8565;DHT22;4320;51.498;6.556;2023-02-03T05:45:35;9.90;99.90
8565;DHT22;4320;51.498;6.556;2023-02-03T05:48:00;9.90;99.90
8565;DHT22;4320;51.498;6.556;2023-02-03T05:50:30;9.90;99.90
8565;DHT22;4320;51.498;6.556;2023-02-03T05:52:59;10.00;99.90
8565;DHT22;4320;51.498;6.556;2023-02-03T05:55:26;9.90;99.90
8565;DHT22;4320;51.498;6.556;2023-02-03T05:57:52;9.90;99.90
8565;DHT22;4320;51.498;6.556;2023-02-03T06:00:18;10.00;99.90
8565;DHT22;4320;51.498;6.556;2023-02-03T06:05:17;10.00;99.90
8565;DHT22;4320;51.498;6.556;2023-02-03T06:07:43;10.00;99.90
8565;DHT22;4320;51.498;6.556;2023-02-03T06:10:09;9.90;99.90
8565;DHT22;4320;51.498;6.556;2023-02-03T06:12:36;10.00;99.90
8565;DHT22;4320;51.498;6.556;2023-02-03T06:15:01;9.90;99.90
8565;DHT22;4320;51.498;6.556;2023-02-03T06:17:27;9.90;99.90
8565;DHT22;4320;51.498;6.556;2023-02-03T06:19:52;9.90;99.90
8565;DHT22;4320;51.498;6.556;2023-02-03T06:22:18;9.90;99.90
8565;DHT22;4320;51.498;6.556;2023-02-03T06:24:44;9.90;99.90
8565;DHT22;4320;51.498;6.556;2023-02-03T06:27:10;9.90;99.90
8565;DHT22;4320;51.498;6.556;2023-02-03T06:29:36;9.90;99.90
8565;DHT22;4320;51.498;6.556;2023-02-03T06:32:03;9.90;99.90
8565;DHT22;4320;51.498;6.556;2023-02-03T06:34:29;9.90;99.90
8565;DHT22;4320;51.498;6.556;2023-02-03T06:36:54;9.90;99.90
8565;DHT22;4320;51.498;6.556;2023-02-03T06:39:20;9.90;99.90
8565;DHT22;4320;51.498;6.556;2023-02-03T06:41:45;9.90;99.90
8565;DHT22;4320;51.498;6.556;2023-02-03T06:44:11;9.90;99.90
8565;DHT22;4320;51.498;6.556;2023-02-03T06:46:36;9.90;99.90
8565;DHT22;4320;51.498;6.556;2023-02-03T06:49:02;9.90;99.90
8565;DHT22;4320;51.498;6.556;2023-02-03T06:51:28;9.90;99.90
8565;DHT22;4320;51.498;6.556;2023-02-03T06:53:53;9.90;99.90
8565;DHT22;4320;51.498;6.556;2023-02-03T06:56:19;10.00;99.90
8565;DHT22;4320;51.498;6.556;2023-02-03T06:58:44;9.90;99.90
8565;DHT22;4320;51.498;6.556;2023-02-03T07:01:10;9.90;99.90
8565;DHT22;4320;51.498;6.556;2023-02-03T07:03:36;9.90;99.90
8565;DHT22;4320;51.498;6.556;2023-02-03T07:06:01;9.90;99.90
8565;DHT22;4320;51.498;6.556;2023-02-03T07:08:27;9.90;99.90
8565;DHT22;4320;51.498;6.556;2023-02-03T07:10:53;9.90;99.90
8565;DHT22;4320;51.498;6.556;2023-02-03T07:13:19;9.90;99.90
8565;DHT22;4320;51.498;6.556;2023-02-03T07:15:44;9.90;99.90
8565;DHT22;4320;51.498;6.556;2023-02-03T07:18:10;9.90;99.90
8565;DHT22;4320;51.498;6.556;2023-02-03T07:20:36;10.00;99.90
8565;DHT22;4320;51.498;6.556;2023-02-03T07:23:01;9.90;99.90
8565;DHT22;4320;51.498;6.556;2023-02-03T07:25:27;10.00;99.90
8565;DHT22;4320;51.498;6.556;2023-02-03T07:27:53;9.90;99.90
8565;DHT22;4320;51.498;6.556;2023-02-03T07:30:19;10.00;99.90
8565;DHT22;4320;51.498;6.556;2023-02-03T07:32:48;10.00;99.90
8565;DHT22;4320;51.498;6.556;2023-02-03T07:35:14;10.00;99.90
8565;DHT22;4320;51.498;6.556;2023-02-03T07:37:41;9.90;99.90
8565;DHT22;4320;51.498;6.556;2023-02-03T07:40:08;10.00;99.90
8565;DHT22;4320;51.498;6.556;2023-02-03T07:42:33;10.00;99.90
8565;DHT22;4320;51.498;6.556;2023-02-03T07:44:59;10.00;99.90
8565;DHT22;4320;51.498;6.556;2023-02-03T07:47:25;9.90;99.90
8565;DHT22;4320;51.498;6.556;2023-02-03T07:49:50;10.00;99.90
8565;DHT22;4320;51.498;6.556;2023-02-03T07:52:16;10.00;99.90
8565;DHT22;4320;51.498;6.556;2023-02-03T07:54:41;10.00;99.90
8565;DHT22;4320;51.498;6.556;2023-02-03T07:57:10;10.00;99.90
8565;DHT22;4320;51.498;6.556;2023-02-03T07:59:39;10.00;99.90
8565;DHT22;4320;51.498;6.556;2023-02-03T08:02:04;10.10;99.90
8565;DHT22;4320;51.498;6.556;2023-02-03T08:04:30;10.10;99.90
8565;DHT22;4320;51.498;6.556;2023-02-03T08:06:55;10.10;99.90
8565;DHT22;4320;51.498;6.556;2023-02-03T08:09:21;10.10;99.90
8565;DHT22;4320;51.498;6.556;2023-02-03T08:11:47;10.00;99.90
8565;DHT22;4320;51.498;6.556;2023-02-03T08:14:13;10.10;99.90
8565;DHT22;4320;51.498;6.556;2023-02-03T08:16:38;10.00;99.90
8565;DHT22;4320;51.498;6.556;2023-02-03T08:19:04;10.10;99.90
8565;DHT22;4320;51.498;6.556;2023-02-03T08:21:30;10.10;99.90
8565;DHT22;4320;51.498;6.556;2023-02-03T08:23:56;10.10;99.90
8565;DHT22;4320;51.498;6.556;2023-02-03T08:26:22;10.20;99.90
8565;DHT22;4320;51.498;6.556;2023-02-03T08:28:48;10.20;99.90
8565;DHT22;4320;51.498;6.556;2023-02-03T08:31:15;10.20;99.90
8565;DHT22;4320;51.498;6.556;2023-02-03T08:33:40;10.20;99.90
8565;DHT22;4320;51.498;6.556;2023-02-03T08:36:06;10.20;99.90
8565;DHT22;4320;51.498;6.556;2023-02-03T08:38:32;10.20;99.90
8565;DHT22;4320;51.498;6.556;2023-02-03T08:40:58;10.30;99.90
8565;DHT22;4320;51.498;6.556;2023-02-03T08:43:23;10.20;99.90
8565;DHT22;4320;51.498;6.556;2023-02-03T08:45:49;10.30;99.90
8565;DHT22;4320;51.498;6.556;2023-02-03T08:48:14;10.30;99.90
8565;DHT22;4320;51.498;6.556;2023-02-03T08:50:41;10.40;99.90
8565;DHT22;4320;51.498;6.556;2023-02-03T08:53:09;10.40;99.90
8565;DHT22;4320;51.498;6.556;2023-02-03T08:55:38;10.30;99.90
8565;DHT22;4320;51.498;6.556;2023-02-03T08:58:04;10.30;99.90
8565;DHT22;4320;51.498;6.556;2023-02-03T09:00:29;10.40;99.90
8565;DHT22;4320;51.498;6.556;2023-02-03T09:02:55;10.30;99.90
8565;DHT22;4320;51.498;6.556;2023-02-03T09:05:21;10.30;99.90
8565;DHT22;4320;51.498;6.556;2023-02-03T09:07:47;10.40;99.90
8565;DHT22;4320;51.498;6.556;2023-02-03T09:10:12;10.40;99.90
8565;DHT22;4320;51.498;6.556;2023-02-03T09:12:38;10.40;99.90
8565;DHT22;4320;51.498;6.556;2023-02-03T09:15:04;10.40;99.90
8565;DHT22;4320;51.498;6.556;2023-02-03T09:17:30;10.40;99.90
8565;DHT22;4320;51.498;6.556;2023-02-03T09:19:55;10.50;99.90
8565;DHT22;4320;51.498;6.556;2023-02-03T09:22:21;10.40;99.90
8565;DHT22;4320;51.498;6.556;2023-02-03T09:24:46;10.50;99.90
8565;DHT22;4320;51.498;6.556;2023-02-03T09:27:14;10.50;99.90
8565;DHT22;4320;51.498;6.556;2023-02-03T09:29:40;10.40;99.90
8565;DHT22;4320;51.498;6.556;2023-02-03T09:32:06;10.40;99.90
8565;DHT22;4320;51.498;6.556;2023-02-03T09:34:34;10.50;99.90
8565;DHT22;4320;51.498;6.556;2023-02-03T09:37:00;10.50;99.90
8565;DHT22;4320;51.498;6.556;2023-02-03T09:39:26;10.40;99.90
8565;DHT22;4320;51.498;6.556;2023-02-03T09:47:42;10.60;99.90
8565;DHT22;4320;51.498;6.556;2023-02-03T09:50:29;10.60;99.90
8565;DHT22;4320;51.498;6.556;2023-02-03T09:52:58;10.60;99.90
8565;DHT22;4320;51.498;6.556;2023-02-03T09:55:35;10.60;99.90
8565;DHT22;4320;51.498;6.556;2023-02-03T09:58:12;10.60;99.90
8565;DHT22;4320;51.498;6.556;2023-02-03T10:00:46;10.60;99.90
8565;DHT22;4320;51.498;6.556;2023-02-03T10:08:42;10.60;99.90
8565;DHT22;4320;51.498;6.556;2023-02-03T10:19:24;10.70;99.90
8565;DHT22;4320;51.498;6.556;2023-02-03T10:21:57;10.80;99.90
8565;DHT22;4320;51.498;6.556;2023-02-03T10:24:47;10.80;99.90
8565;DHT22;4320;51.498;6.556;2023-02-03T10:27:20;10.80;99.90
8565;DHT22;4320;51.498;6.556;2023-02-03T10:30:02;10.80;99.90
8565;DHT22;4320;51.498;6.556;2023-02-03T10:32:28;10.80;99.90
8565;DHT22;4320;51.498;6.556;2023-02-03T10:34:55;10.90;99.90
8565;DHT22;4320;51.498;6.556;2023-02-03T10:37:30;10.90;99.90
8565;DHT22;4320;51.498;6.556;2023-02-03T10:39:59;10.80;99.90
8565;DHT22;4320;51.498;6.556;2023-02-03T10:42:28;10.80;99.90
8565;DHT22;4320;51.498;6.556;2023-02-03T10:45:14;10.80;99.90
8565;DHT22;4320;51.498;6.556;2023-02-03T10:47:56;10.80;99.90
8565;DHT22;4320;51.498;6.556;2023-02-03T10:50:26;10.90;99.90
8565;DHT22;4320;51.498;6.556;2023-02-03T10:55:42;10.80;99.90
8565;DHT22;4320;51.498;6.556;2023-02-03T10:58:14;10.70;99.90
8565;DHT22;4320;51.498;6.556;2023-02-03T11:00:41;10.80;99.90
8565;DHT22;4320;51.498;6.556;2023-02-03T11:05:38;10.70;99.90
8565;DHT22;4320;51.498;6.556;2023-02-03T11:08:15;10.80;99.90
8565;DHT22;4320;51.498;6.556;2023-02-03T11:10:41;10.80;99.90
8565;DHT22;4320;51.498;6.556;2023-02-03T11:13:23;10.80;99.90
8565;DHT22;4320;51.498;6.556;2023-02-03T11:15:56;10.80;99.90
8565;DHT22;4320;51.498;6.556;2023-02-03T11:18:54;10.80;99.90
8565;DHT22;4320;51.498;6.556;2023-02-03T11:21:29;10.90;99.90
8565;DHT22;4320;51.498;6.556;2023-02-03T11:24:05;10.90;99.90
8565;DHT22;4320;51.498;6.556;2023-02-03T11:26:36;10.90;99.90
8565;DHT22;4320;51.498;6.556;2023-02-03T11:29:05;10.80;99.90
8565;DHT22;4320;51.498;6.556;2023-02-03T11:31:34;10.90;99.90
8565;DHT22;4320;51.498;6.556;2023-02-03T11:34:06;10.90;99.90
8565;DHT22;4320;51.498;6.556;2023-02-03T11:36:38;10.90;99.90
8565;DHT22;4320;51.498;6.556;2023-02-03T11:41:43;11.00;99.90
8565;DHT22;4320;51.498;6.556;2023-02-03T11:44:17;11.00;99.90
8565;DHT22;4320;51.498;6.556;2023-02-03T11:46:45;11.00;99.90
8565;DHT22;4320;51.498;6.556;2023-02-03T11:54:36;11.10;99.90
8565;DHT22;4320;51.498;6.556;2023-02-03T12:29:46;11.40;99.90
8565;DHT22;4320;51.498;6.556;2023-02-03T12:34:55;11.40;99.90
8565;DHT22;4320;51.498;6.556;2023-02-03T12:37:31;11.40;99.90
8565;DHT22;4320;51.498;6.556;2023-02-03T12:40:05;11.40;99.90
8565;DHT22;4320;51.498;6.556;2023-02-03T12:42:43;11.40;99.90
8565;DHT22;4320;51.498;6.556;2023-02-03T12:45:15;11.40;99.90
8565;DHT22;4320;51.498;6.556;2023-02-03T12:47:59;11.50;99.90
8565;DHT22;4320;51.498;6.556;2023-02-03T12:50:32;11.40;99.90
8565;DHT22;4320;51.498;6.556;2023-02-03T12:53:50;11.50;99.90
8565;DHT22;4320;51.498;6.556;2023-02-03T12:55:52;11.50;99.90
8565;DHT22;4320;51.498;6.556;2023-02-03T12:58:47;11.50;99.90
8565;DHT22;4320;51.498;6.556;2023-02-03T13:01:30;11.50;99.90
8565;DHT22;4320;51.498;6.556;2023-02-03T13:12:09;11.30;99.90
8565;DHT22;4320;51.498;6.556;2023-02-03T13:14:41;11.40;99.90
8565;DHT22;4320;51.498;6.556;2023-02-03T13:19:52;11.50;99.90
8565;DHT22;4320;51.498;6.556;2023-02-03T13:22:22;11.40;99.90
8565;DHT22;4320;51.498;6.556;2023-02-03T13:25:03;11.50;99.90
8565;DHT22;4320;51.498;6.556;2023-02-03T13:30:28;11.50;99.90
8565;DHT22;4320;51.498;6.556;2023-02-03T13:36:10;11.40;99.90
8565;DHT22;4320;51.498;6.556;2023-02-03T13:41:41;11.40;99.90
8565;DHT22;4320;51.498;6.556;2023-02-03T13:44:14;11.40;99.90
8565;DHT22;4320;51.498;6.556;2023-02-03T13:46:41;11.30;99.90
8565;DHT22;4320;51.498;6.556;2023-02-03T13:49:07;11.40;99.90
8565;DHT22;4320;51.498;6.556;2023-02-03T13:51:37;11.30;99.90
8565;DHT22;4320;51.498;6.556;2023-02-03T13:54:14;11.40;99.90
8565;DHT22;4320;51.498;6.556;2023-02-03T13:56:41;11.40;99.90
8565;DHT22;4320;51.498;6.556;2023-02-03T14:01:43;11.50;99.90
8565;DHT22;4320;51.498;6.556;2023-02-03T14:09:22;11.40;99.90
8565;DHT22;4320;51.498;6.556;2023-02-03T14:12:11;11.40;99.90
8565;DHT22;4320;51.498;6.556;2023-02-03T14:17:00;11.20;99.90
8565;DHT22;4320;51.498;6.556;2023-02-03T14:24:33;11.00;99.90
8565;DHT22;4320;51.498;6.556;2023-02-03T14:27:02;10.90;99.90
8565;DHT22;4320;51.498;6.556;2023-02-03T14:29:34;10.90;1.00
8565;DHT22;4320;51.498;6.556;2023-02-03T14:32:02;10.80;1.00
8565;DHT22;4320;51.498;6.556;2023-02-03T14:37:26;10.80;1.00
8565;DHT22;4320;51.498;6.556;2023-02-03T14:48:32;10.50;1.00
8565;DHT22;4320;51.498;6.556;2023-02-03T14:56:24;10.60;1.00
8565;DHT22;4320;51.498;6.556;2023-02-03T14:58:57;10.60;1.00
8565;DHT22;4320;51.498;6.556;2023-02-03T15:02:07;10.60;1.00
8565;DHT22;4320;51.498;6.556;2023-02-03T15:06:46;10.70;1.00
8565;DHT22;4320;51.498;6.556;2023-02-03T15:09:34;10.70;1.00
8565;DHT22;4320;51.498;6.556;2023-02-03T15:12:15;10.70;99.90
8565;DHT22;4320;51.498;6.556;2023-02-03T15:14:42;10.70;99.90
8565;DHT22;4320;51.498;6.556;2023-02-03T15:17:17;10.70;99.90
8565;DHT22;4320;51.498;6.556;2023-02-03T15:19:45;10.70;99.90
8565;DHT22;4320;51.498;6.556;2023-02-03T15:22:21;10.70;99.90
8565;DHT22;4320;51.498;6.556;2023-02-03T15:24:47;10.70;99.90
8565;DHT22;4320;51.498;6.556;2023-02-03T15:27:33;10.70;99.90
8565;DHT22;4320;51.498;6.556;2023-02-03T15:30:26;10.70;99.90
8565;DHT22;4320;51.498;6.556;2023-02-03T15:33:06;10.70;99.90
8565;DHT22;4320;51.498;6.556;2023-02-03T15:35:34;10.70;99.90
8565;DHT22;4320;51.498;6.556;2023-02-03T15:38:22;10.70;99.90
8565;DHT22;4320;51.498;6.556;2023-02-03T15:40:53;10.70;99.90
8565;DHT22;4320;51.498;6.556;2023-02-03T15:43:37;10.60;99.90
8565;DHT22;4320;51.498;6.556;2023-02-03T15:46:13;10.60;99.90
8565;DHT22;4320;51.498;6.556;2023-02-03T15:49:16;10.60;99.90
8565;DHT22;4320;51.498;6.556;2023-02-03T15:51:42;10.60;99.90
8565;DHT22;4320;51.498;6.556;2023-02-03T15:54:16;10.50;99.90
8565;DHT22;4320;51.498;6.556;2023-02-03T15:56:48;10.50;99.90
8565;DHT22;4320;51.498;6.556;2023-02-03T15:59:25;10.60;99.90
8565;DHT22;4320;51.498;6.556;2023-02-03T16:01:54;10.50;99.90
8565;DHT22;4320;51.498;6.556;2023-02-03T16:04:20;10.50;99.90
8565;DHT22;4320;51.498;6.556;2023-02-03T16:06:49;10.50;99.90
8565;DHT22;4320;51.498;6.556;2023-02-03T16:09:30;10.60;99.90
8565;DHT22;4320;51.498;6.556;2023-02-03T16:12:04;10.50;99.90
8565;DHT22;4320;51.498;6.556;2023-02-03T16:14:38;10.50;99.90
8565;DHT22;4320;51.498;6.556;2023-02-03T16:17:04;10.50;99.90
8565;DHT22;4320;51.498;6.556;2023-02-03T16:19:31;10.50;99.90
8565;DHT22;4320;51.498;6.556;2023-02-03T16:21:58;10.50;99.90
8565;DHT22;4320;51.498;6.556;2023-02-03T16:29:50;10.50;99.90
8565;DHT22;4320;51.498;6.556;2023-02-03T16:32:34;10.50;99.90
8565;DHT22;4320;51.498;6.556;2023-02-03T16:35:19;10.50;99.90
8565;DHT22;4320;51.498;6.556;2023-02-03T16:40:55;10.50;99.90
8565;DHT22;4320;51.498;6.556;2023-02-03T16:43:39;10.50;99.90
8565;DHT22;4320;51.498;6.556;2023-02-03T16:46:23;10.50;99.90
8565;DHT22;4320;51.498;6.556;2023-02-03T16:49:07;10.40;99.90
8565;DHT22;4320;51.498;6.556;2023-02-03T16:51:52;10.40;99.90
8565;DHT22;4320;51.498;6.556;2023-02-03T16:54:17;10.30;99.90
8565;DHT22;4320;51.498;6.556;2023-02-03T16:56:43;10.30;99.90
8565;DHT22;4320;51.498;6.556;2023-02-03T16:59:09;10.30;99.90
8565;DHT22;4320;51.498;6.556;2023-02-03T17:01:34;10.40;99.90
8565;DHT22;4320;51.498;6.556;2023-02-03T17:04:00;10.30;99.90
8565;DHT22;4320;51.498;6.556;2023-02-03T17:06:27;10.30;99.90
8565;DHT22;4320;51.498;6.556;2023-02-03T17:08:53;10.30;99.90
8565;DHT22;4320;51.498;6.556;2023-02-03T17:11:20;10.30;99.90
8565;DHT22;4320;51.498;6.556;2023-02-03T17:13:47;10.30;99.90
8565;DHT22;4320;51.498;6.556;2023-02-03T17:16:21;10.20;99.90
8565;DHT22;4320;51.498;6.556;2023-02-03T17:18:47;10.10;99.90
8565;DHT22;4320;51.498;6.556;2023-02-03T17:21:20;10.10;99.90
8565;DHT22;4320;51.498;6.556;2023-02-03T17:23:46;10.20;99.90
8565;DHT22;4320;51.498;6.556;2023-02-03T17:26:12;10.10;99.90
8565;DHT22;4320;51.498;6.556;2023-02-03T17:28:39;10.10;99.90
8565;DHT22;4320;51.498;6.556;2023-02-03T17:31:09;10.10;99.90
8565;DHT22;4320;51.498;6.556;2023-02-03T17:33:36;10.00;99.90
8565;DHT22;4320;51.498;6.556;2023-02-03T17:36:28;10.00;99.90
8565;DHT22;4320;51.498;6.556;2023-02-03T17:38:54;10.00;99.90
8565;DHT22;4320;51.498;6.556;2023-02-03T17:41:22;9.90;99.90
8565;DHT22;4320;51.498;6.556;2023-02-03T17:43:49;9.70;99.90
8565;DHT22;4320;51.498;6.556;2023-02-03T17:46:18;9.80;99.90
8565;DHT22;4320;51.498;6.556;2023-02-03T17:48:44;9.80;99.90
8565;DHT22;4320;51.498;6.556;2023-02-03T17:51:20;9.80;99.90
8565;DHT22;4320;51.498;6.556;2023-02-03T17:53:49;9.80;99.90
8565;DHT22;4320;51.498;6.556;2023-02-03T17:56:23;9.70;99.90
8565;DHT22;4320;51.498;6.556;2023-02-03T17:58:54;9.70;99.90
8565;DHT22;4320;51.498;6.556;2023-02-03T18:01:20;9.70;99.90
8565;DHT22;4320;51.498;6.556;2023-02-03T18:03:48;9.70;99.90
8565;DHT22;4320;51.498;6.556;2023-02-03T18:06:16;9.60;99.90
8565;DHT22;4320;51.498;6.556;2023-02-03T18:08:43;9.70;99.90
8565;DHT22;4320;51.498;6.556;2023-02-03T18:11:09;9.70;99.90
8565;DHT22;4320;51.498;6.556;2023-02-03T18:13:37;9.80;99.90
8565;DHT22;4320;51.498;6.556;2023-02-03T18:16:04;9.70;99.90
8565;DHT22;4320;51.498;6.556;2023-02-03T18:18:30;9.70;99.90
8565;DHT22;4320;51.498;6.556;2023-02-03T18:20:55;9.80;99.90
8565;DHT22;4320;51.498;6.556;2023-02-03T18:23:21;9.70;99.90
8565;DHT22;4320;51.498;6.556;2023-02-03T18:25:54;9.70;99.90
8565;DHT22;4320;51.498;6.556;2023-02-03T18:28:21;9.70;99.90
8565;DHT22;4320;51.498;6.556;2023-02-03T18:30:47;9.70;99.90
8565;DHT22;4320;51.498;6.556;2023-02-03T18:33:14;9.70;99.90
8565;DHT22;4320;51.498;6.556;2023-02-03T18:35:40;9.70;99.90
8565;DHT22;4320;51.498;6.556;2023-02-03T18:38:05;9.70;99.90
8565;DHT22;4320;51.498;6.556;2023-02-03T18:40:32;9.60;99.90
8565;DHT22;4320;51.498;6.556;2023-02-03T18:42:59;9.60;99.90
8565;DHT22;4320;51.498;6.556;2023-02-03T18:45:27;9.60;99.90
8565;DHT22;4320;51.498;6.556;2023-02-03T18:47:53;9.50;99.90
8565;DHT22;4320;51.498;6.556;2023-02-03T18:50:19;9.50;99.90
8565;DHT22;4320;51.498;6.556;2023-02-03T18:52:45;9.50;99.90
8565;DHT22;4320;51.498;6.556;2023-02-03T18:55:10;9.40;99.90
8565;DHT22;4320;51.498;6.556;2023-02-03T18:57:37;9.30;99.90
8565;DHT22;4320;51.498;6.556;2023-02-03T19:00:05;9.40;99.90
8565;DHT22;4320;51.498;6.556;2023-02-03T19:02:32;9.30;99.90
8565;DHT22;4320;51.498;6.556;2023-02-03T19:04:57;9.30;99.90
8565;DHT22;4320;51.498;6.556;2023-02-03T19:07:23;9.40;99.90